This is the latest recevied weather packets stored in our database for station/object WC0AA15WX. If no packets are shown the sender has not sent any weather packets the latest 10 day(s).
| Time | Temp. | Humidity | Pressure | Rain* | Wind** | Luminosity | Snow |
|---|---|---|---|---|---|---|---|
| 1777591267 | 16.67° C | 73% | 1021 hPa | 0.51 mm | - | - | - |
| 1777590667 | 15° C | 78% | 1021 hPa | 0.51 mm | - | - | - |
| 1777590067 | 13.89° C | 78% | 1021 hPa | 0.51 mm | - | - | - |
| 1777589467 | 15.56° C | 66% | 1020.7 hPa | 0 mm | - | - | - |
| 1777588867 | 15.56° C | 66% | 1020.7 hPa | 0 mm | - | - | - |
| 1777588502 | 16.11° C | 65% | 1020.7 hPa | 0 mm | - | - | - |
| 1777588267 | 16.11° C | 65% | 1020.7 hPa | 0 mm | - | - | - |
| 1777587936 | 17.78° C | 54% | 1020.7 hPa | 0 mm | - | - | - |
| 1777587667 | 17.78° C | 54% | 1020.7 hPa | 0 mm | - | - | - |
| 1777587067 | 18.33° C | 53% | 1020.7 hPa | 0 mm | - | - | - |
| 1777586467 | 18.89° C | 51% | 1020.7 hPa | 0 mm | - | - | - |
| 1777586210 | 18.89° C | 51% | 1021 hPa | 0 mm | - | - | - |
| 1777585867 | 18.89° C | 51% | 1021 hPa | 0 mm | - | - | - |
| 1777585237 | 19.44° C | 51% | 1021 hPa | 0 mm | - | - | - |
| 1777584607 | 18.89° C | 51% | 1021 hPa | 0 mm | - | - | - |
| 1777583977 | 18.33° C | 54% | 1021.3 hPa | 0 mm | - | - | - |
| 1777583377 | 18.33° C | 54% | 1021.3 hPa | 0 mm | - | - | - |
| 1777582777 | 18.33° C | 53% | 1021.3 hPa | 0 mm | - | - | - |
| 1777582177 | 17.78° C | 53% | 1021.7 hPa | 0 mm | - | - | - |
| 1777581576 | 18.89° C | 51% | 1021.7 hPa | 0 mm | - | - | - |
| 1777580976 | 18.33° C | 50% | 1022 hPa | 0 mm | - | - | - |
| 1777580377 | 18.33° C | 51% | 1022 hPa | 0 mm | - | - | - |
| 1777579776 | 18.89° C | 50% | 1022 hPa | 0 mm | - | - | - |
| 1777579176 | 18.33° C | 49% | 1022 hPa | 0 mm | - | - | - |
| 1777578576 | 18.33° C | 51% | 1022 hPa | 0 mm | - | - | - |
* Rain latest hour (hover to see other rain measurements)
** Current wind speed in m/s (hover to see current wind gust speed)